Flight Track Log - Related Links

Times and Time Zones

All times are in EDT time to prevent confusion due to time zone crossing. See the SWA2182 flight status page for this flight to view local times or setup timezone preferences in your user account.

Time Position Orientation Groundspeed Altitude Reporting Facility
EDT Latitude Longitude Course Direction KTS MPH feet Rate Location/Type
Wed 09:07:09 AM 38.7333 -121.5833 109° East 187 215 3,800  Level Northern Cal TRACON
Wed 09:08:09 AM 38.7000 -121.5000 117° Southeast 262 302 6,600 3,169 Climbing Northern Cal TRACON
Wed 09:10:07 AM 38.6106 -121.3344 125° Southeast 322 371 13,200 3,573 Climbing Oakland Center
Wed 09:11:07 AM 38.5483 -121.2275 127° Southeast 368 423 17,200 3,570 Climbing Oakland Center
Wed 09:12:00 AM 38.2977 -120.9481 109° East  Level FlightAware Approximate
Wed 09:12:08 AM 38.4867 -121.1206 126° Southeast 385 443 20,400  Level Oakland Center
Wed 09:13:08 AM 38.4181 -121.0019 126° Southeast 407 468 24,000 3,100 Climbing Oakland Center
Wed 09:14:08 AM 38.3447 -120.8775 127° Southeast 432 497 26,600 2,479 Climbing Oakland Center
Wed 09:15:09 AM 38.2678 -120.7456 127° Southeast 457 526 29,000 2,331 Climbing Oakland Center
Wed 09:16:09 AM 38.1725 -120.6217 134° Southeast 488 562 31,300 2,331 Climbing Oakland Center
Wed 09:17:10 AM 38.0586 -120.5125 143° Southeast 508 585 33,700 2,281 Climbing Oakland Center
Wed 09:18:10 AM 37.9481 -120.4019 142° Southeast 506 582 35,900 2,430 Climbing Oakland Center
Wed 09:19:11 AM 37.8372 -120.2939 142° Southeast 504 580 38,600 1,525 Climbing Oakland Center
Wed 09:20:12 AM 37.7267 -120.2011 146° Southeast 482 555 39,000 198 Climbing Oakland Center
Wed 09:21:12 AM 37.5989 -120.1450 161° South 478 550 39,000  Level Oakland Center
Wed 09:22:12 AM 37.4714 -120.0839 159° South 484 557 39,000  Level Oakland Center
Wed 09:23:13 AM 37.3456 -120.0228 159° South 482 555 39,000  Level Oakland Center
Wed 09:24:13 AM 37.2194 -119.9611 159° South 485 558 39,000  Level Oakland Center
Wed 09:25:14 AM 37.0731 -119.8900 159° South 485 558 39,000  Level Oakland Center
Wed 09:26:15 AM 36.9442 -119.8272 159° South 485 558 39,000  Level Oakland Center
Wed 09:27:15 AM 36.8181 -119.7667 159° South 486 559 39,000  Level Oakland Center
Wed 09:28:16 AM 36.6917 -119.7069 159° South 485 558 39,000  Level Oakland Center
Wed 09:29:17 AM 36.5642 -119.6439 158° South 489 563 39,000  Level Oakland Center
Wed 09:30:17 AM 36.4372 -119.5836 159° South 489 563 39,000  Level Oakland Center
Wed 09:31:18 AM 36.3111 -119.5231 159° South 487 560 39,000  Level Oakland Center
Wed 09:32:19 AM 36.1839 -119.4628 159° South 487 560 39,000  Level Oakland Center
Wed 09:33:19 AM 36.0567 -119.4039 159° South 486 559 39,000  Level Oakland Center
Wed 09:34:20 AM 35.9317 -119.3450 159° South 482 555 39,000  Level Oakland Center
Wed 09:35:21 AM 35.8064 -119.2878 160° South 477 549 39,000  Level Oakland Center
Wed 09:36:22 AM 35.6792 -119.2272 159° South 485 558 39,000  Level Oakland Center
Wed 09:37:22 AM 35.5556 -119.1703 159° South 476 548 39,000  Level Oakland Center
Wed 09:38:23 AM 35.4328 -119.1133 159° South 470 541 39,000  Level Oakland Center
Wed 09:39:24 AM 35.3086 -119.0569 160° South 472 543 39,000  Level Oakland Center
Wed 09:39:40 AM 35.3094 -119.0572 345° North 470 541 39,000  Level Los Angeles Center
Wed 09:40:41 AM 35.1614 -118.9883 159° South 473 544 39,000  Level Los Angeles Center
Wed 09:41:43 AM 35.0136 -118.9211 160° South 471 542 39,000  Level Los Angeles Center
Wed 09:42:44 AM 34.8939 -118.8661 159° South 470 541 39,000  Level Los Angeles Center
Wed 09:43:45 AM 34.7650 -118.8078 160° South 465 535 39,000  Level Los Angeles Center
Wed 09:44:47 AM 34.6450 -118.7533 160° South 463 533 39,000  Level Los Angeles Center
Wed 09:45:48 AM 34.5231 -118.6983 160° South 465 535 39,000  Level Los Angeles Center
Wed 09:46:49 AM 34.4014 -118.6433 160° South 467 537 39,000  Level Los Angeles Center
Wed 09:47:51 AM 34.2792 -118.5892 160° South 468 539 39,000 -390 Level Los Angeles Center
Wed 09:48:52 AM 34.1581 -118.5342 159° South 465 535 38,200 -829 Descending Los Angeles Center
Wed 09:49:54 AM 34.0369 -118.4806 160° South 465 535 37,300 -927 Descending Los Angeles Center
Wed 09:50:55 AM 33.9217 -118.4119 154° Southeast 464 534 36,300 -1,475 Descending Los Angeles Center
Wed 09:51:56 AM 33.8172 -118.2864 135° Southeast 493 567 34,300 -2,488 Descending Los Angeles Center
Wed 09:52:58 AM 33.7228 -118.1639 133° Southeast 498 573 31,200 -2,976 Descending Los Angeles Center
Wed 09:53:59 AM 33.6233 -118.0358 133° Southeast 518 596 28,200 -2,780 Descending Los Angeles Center
Wed 09:55:01 AM 33.5278 -117.9161 134° Southeast 504 580 25,500 -2,872 Descending Los Angeles Center
Wed 09:55:56 AM 33.4333 -117.7833 130° Southeast 477 549 22,600 -2,870 Descending Southern California TRACON
Wed 09:56:56 AM 33.3333 -117.6667 136° Southeast 464 534 20,000 -2,421 Descending Southern California TRACON
Wed 09:57:50 AM 33.2500 -117.5833 140° Southeast 449 517 18,000 -2,842 Descending Southern California TRACON
Wed 09:58:50 AM 33.1500 -117.5000 145° Southeast 455 524 14,600 -2,900 Descending Southern California TRACON
Wed 09:59:50 AM 33.0500 -117.4333 151° Southeast 422 486 12,200 -2,127 Descending Southern California TRACON
Wed 10:00:09 AM 33.0269 -117.4133 144° Southeast 437 503 11,800 -2,111 Descending Los Angeles Center
Wed 10:00:44 AM 32.9667 -117.3667 147° Southeast 394 453 10,300 -1,281 Descending Southern California TRACON
Wed 10:01:38 AM 32.9000 -117.3000 140° Southeast 339 390 9,900 -840 Descending Southern California TRACON
Wed 10:02:24 AM 32.8511 -117.2592 145° Southeast 333 383 8,900 -1,682 Descending Los Angeles Center
Wed 10:03:25 AM 32.8133 -117.1742 118° Southeast 305 351 6,900 -1,453 Descending Los Angeles Center
Wed 10:04:32 AM 32.7833 -117.0667 108° East 249 287 5,800 -756 Descending Southern California TRACON
Wed 10:05:32 AM 32.7667 -117.0000 107° East 229 264 5,300 -421 Descending Southern California TRACON
Wed 10:06:26 AM 32.7333 -116.9333 121° Southeast 220 253 5,000 -684 Descending Southern California TRACON
Wed 10:07:26 AM 32.6833 -116.9500 196° South 212 244 4,000 -1,000 Descending Southern California TRACON
Wed 10:08:20 AM 32.7000 -117.0000 292° West 173 199 3,100 -1,000 Descending Southern California TRACON
Wed 10:09:14 AM 32.7000 -117.0500 270° West 164 189 2,200 -895 Descending Southern California TRACON
Wed 10:10:14 AM 32.7167 -117.1000 292° West 155 178 1,400 -750 Descending Southern California TRACON
Wed 10:11:14 AM 32.7167 -117.1500 270° West 133 153 700 -786 Descending Southern California TRACON
Wed 10:11:38 AM 32.7264 -117.1606 318° Northwest 140 161 300 -353 Descending Los Angeles Center
Wed 10:12:39 AM 32.7367 -117.2006 287° West 137 158 200 -98 Descending Los Angeles Center
Wed 10:14:00 AM 32.7333 -117.1833 90° East  Level FlightAware Approximate

Login

Don't have an account? Register now (free) for customized features, flight alerts, and more!